sensor_id;sensor_type;location;lat;lon;timestamp;P1;durP1;ratioP1;P2;durP2;ratioP2
46158;SDS011;31888;44.512;26.104;2023-04-25T00:01:51;23.90;;;16.08;;
46158;SDS011;31888;44.512;26.104;2023-04-25T00:04:16;26.77;;;17.50;;
46158;SDS011;31888;44.512;26.104;2023-04-25T00:06:41;27.38;;;19.20;;
46158;SDS011;31888;44.512;26.104;2023-04-25T00:09:07;24.98;;;17.65;;
46158;SDS011;31888;44.512;26.104;2023-04-25T00:11:33;27.83;;;16.70;;
46158;SDS011;31888;44.512;26.104;2023-04-25T00:13:58;25.05;;;14.70;;
46158;SDS011;31888;44.512;26.104;2023-04-25T00:16:24;24.02;;;14.20;;
46158;SDS011;31888;44.512;26.104;2023-04-25T00:18:49;17.60;;;12.18;;
46158;SDS011;31888;44.512;26.104;2023-04-25T00:21:16;19.38;;;11.40;;
46158;SDS011;31888;44.512;26.104;2023-04-25T00:23:42;22.65;;;12.88;;
46158;SDS011;31888;44.512;26.104;2023-04-25T00:26:10;19.52;;;12.18;;
46158;SDS011;31888;44.512;26.104;2023-04-25T00:28:34;18.88;;;11.65;;
46158;SDS011;31888;44.512;26.104;2023-04-25T00:31:00;19.20;;;11.55;;
46158;SDS011;31888;44.512;26.104;2023-04-25T00:33:25;21.30;;;10.80;;
46158;SDS011;31888;44.512;26.104;2023-04-25T00:35:49;27.17;;;11.00;;
46158;SDS011;31888;44.512;26.104;2023-04-25T00:38:14;24.45;;;10.95;;
46158;SDS011;31888;44.512;26.104;2023-04-25T00:40:39;23.45;;;11.10;;
46158;SDS011;31888;44.512;26.104;2023-04-25T00:43:07;18.67;;;9.98;;
46158;SDS011;31888;44.512;26.104;2023-04-25T00:45:32;17.13;;;10.40;;
46158;SDS011;31888;44.512;26.104;2023-04-25T00:48:03;20.50;;;10.30;;
46158;SDS011;31888;44.512;26.104;2023-04-25T00:50:29;23.48;;;10.48;;
46158;SDS011;31888;44.512;26.104;2023-04-25T00:52:54;16.23;;;9.52;;
46158;SDS011;31888;44.512;26.104;2023-04-25T00:55:18;21.30;;;9.98;;
46158;SDS011;31888;44.512;26.104;2023-04-25T00:57:44;17.13;;;9.73;;
46158;SDS011;31888;44.512;26.104;2023-04-25T01:00:12;12.93;;;9.45;;
46158;SDS011;31888;44.512;26.104;2023-04-25T01:02:39;22.80;;;9.57;;
46158;SDS011;31888;44.512;26.104;2023-04-25T01:05:05;15.25;;;9.15;;
46158;SDS011;31888;44.512;26.104;2023-04-25T01:07:30;20.75;;;10.45;;
46158;SDS011;31888;44.512;26.104;2023-04-25T01:09:55;18.63;;;10.38;;
46158;SDS011;31888;44.512;26.104;2023-04-25T01:12:20;18.33;;;8.80;;
46158;SDS011;31888;44.512;26.104;2023-04-25T01:14:46;14.45;;;9.52;;
46158;SDS011;31888;44.512;26.104;2023-04-25T01:17:12;15.88;;;9.65;;
46158;SDS011;31888;44.512;26.104;2023-04-25T01:19:37;17.73;;;9.70;;
46158;SDS011;31888;44.512;26.104;2023-04-25T01:22:04;17.15;;;8.57;;
46158;SDS011;31888;44.512;26.104;2023-04-25T01:24:29;14.52;;;8.60;;
46158;SDS011;31888;44.512;26.104;2023-04-25T01:26:55;21.05;;;8.27;;
46158;SDS011;31888;44.512;26.104;2023-04-25T01:29:20;17.83;;;9.07;;
46158;SDS011;31888;44.512;26.104;2023-04-25T01:31:46;18.73;;;9.15;;
46158;SDS011;31888;44.512;26.104;2023-04-25T01:34:11;14.00;;;8.63;;
46158;SDS011;31888;44.512;26.104;2023-04-25T01:36:36;16.20;;;8.98;;
46158;SDS011;31888;44.512;26.104;2023-04-25T01:39:02;17.63;;;9.10;;
46158;SDS011;31888;44.512;26.104;2023-04-25T01:41:27;16.63;;;9.68;;
46158;SDS011;31888;44.512;26.104;2023-04-25T01:43:52;15.20;;;8.95;;
46158;SDS011;31888;44.512;26.104;2023-04-25T01:46:17;18.63;;;11.00;;
46158;SDS011;31888;44.512;26.104;2023-04-25T01:48:42;17.17;;;10.20;;
46158;SDS011;31888;44.512;26.104;2023-04-25T01:51:06;26.80;;;9.65;;
46158;SDS011;31888;44.512;26.104;2023-04-25T01:53:31;21.00;;;10.52;;
46158;SDS011;31888;44.512;26.104;2023-04-25T01:55:59;18.00;;;9.95;;
46158;SDS011;31888;44.512;26.104;2023-04-25T01:58:28;17.50;;;9.82;;
46158;SDS011;31888;44.512;26.104;2023-04-25T02:01:00;19.85;;;9.75;;
46158;SDS011;31888;44.512;26.104;2023-04-25T02:03:31;17.27;;;10.27;;
46158;SDS011;31888;44.512;26.104;2023-04-25T02:06:01;21.98;;;9.40;;
46158;SDS011;31888;44.512;26.104;2023-04-25T02:08:29;18.33;;;9.23;;
46158;SDS011;31888;44.512;26.104;2023-04-25T02:10:54;17.17;;;10.63;;
46158;SDS011;31888;44.512;26.104;2023-04-25T02:13:21;18.23;;;10.13;;
46158;SDS011;31888;44.512;26.104;2023-04-25T02:16:13;18.90;;;10.13;;
46158;SDS011;31888;44.512;26.104;2023-04-25T02:18:38;17.58;;;9.77;;
46158;SDS011;31888;44.512;26.104;2023-04-25T02:21:03;17.88;;;9.55;;
46158;SDS011;31888;44.512;26.104;2023-04-25T02:23:28;17.60;;;9.40;;
46158;SDS011;31888;44.512;26.104;2023-04-25T02:25:55;25.23;;;9.57;;
46158;SDS011;31888;44.512;26.104;2023-04-25T02:28:22;17.10;;;10.55;;
46158;SDS011;31888;44.512;26.104;2023-04-25T02:30:48;17.85;;;9.38;;
46158;SDS011;31888;44.512;26.104;2023-04-25T02:33:13;22.75;;;10.55;;
46158;SDS011;31888;44.512;26.104;2023-04-25T02:35:39;17.92;;;9.45;;
46158;SDS011;31888;44.512;26.104;2023-04-25T02:38:04;13.88;;;9.43;;
46158;SDS011;31888;44.512;26.104;2023-04-25T02:40:28;18.30;;;9.60;;
46158;SDS011;31888;44.512;26.104;2023-04-25T02:42:53;18.25;;;10.32;;
46158;SDS011;31888;44.512;26.104;2023-04-25T02:45:19;15.40;;;10.25;;
46158;SDS011;31888;44.512;26.104;2023-04-25T02:47:44;17.13;;;10.82;;
46158;SDS011;31888;44.512;26.104;2023-04-25T02:50:10;18.38;;;10.07;;
46158;SDS011;31888;44.512;26.104;2023-04-25T02:52:36;18.42;;;10.30;;
46158;SDS011;31888;44.512;26.104;2023-04-25T02:55:08;19.80;;;11.85;;
46158;SDS011;31888;44.512;26.104;2023-04-25T02:57:34;20.90;;;9.95;;
46158;SDS011;31888;44.512;26.104;2023-04-25T02:59:59;19.73;;;10.05;;
46158;SDS011;31888;44.512;26.104;2023-04-25T03:02:28;17.65;;;10.48;;
46158;SDS011;31888;44.512;26.104;2023-04-25T03:04:53;20.00;;;10.98;;
46158;SDS011;31888;44.512;26.104;2023-04-25T03:07:18;19.92;;;10.88;;
46158;SDS011;31888;44.512;26.104;2023-04-25T03:09:44;20.17;;;11.57;;
46158;SDS011;31888;44.512;26.104;2023-04-25T03:12:08;14.98;;;10.57;;
46158;SDS011;31888;44.512;26.104;2023-04-25T03:14:33;21.65;;;10.82;;
46158;SDS011;31888;44.512;26.104;2023-04-25T03:16:58;19.58;;;10.52;;
46158;SDS011;31888;44.512;26.104;2023-04-25T03:19:24;21.40;;;12.13;;
46158;SDS011;31888;44.512;26.104;2023-04-25T03:21:49;26.05;;;12.35;;
46158;SDS011;31888;44.512;26.104;2023-04-25T03:24:14;17.38;;;11.27;;
46158;SDS011;31888;44.512;26.104;2023-04-25T03:26:39;24.73;;;11.32;;
46158;SDS011;31888;44.512;26.104;2023-04-25T03:29:03;18.85;;;11.65;;
46158;SDS011;31888;44.512;26.104;2023-04-25T03:31:30;21.35;;;10.95;;
46158;SDS011;31888;44.512;26.104;2023-04-25T03:33:55;17.73;;;10.35;;
46158;SDS011;31888;44.512;26.104;2023-04-25T03:36:21;19.65;;;11.05;;
46158;SDS011;31888;44.512;26.104;2023-04-25T03:38:46;18.58;;;11.05;;
46158;SDS011;31888;44.512;26.104;2023-04-25T03:41:12;19.70;;;12.10;;
46158;SDS011;31888;44.512;26.104;2023-04-25T03:43:40;17.02;;;11.15;;
46158;SDS011;31888;44.512;26.104;2023-04-25T03:46:07;22.23;;;11.40;;
46158;SDS011;31888;44.512;26.104;2023-04-25T03:48:33;18.23;;;10.63;;
46158;SDS011;31888;44.512;26.104;2023-04-25T03:50:58;18.52;;;11.50;;
46158;SDS011;31888;44.512;26.104;2023-04-25T03:53:25;20.58;;;11.60;;
46158;SDS011;31888;44.512;26.104;2023-04-25T03:56:16;18.60;;;10.90;;
46158;SDS011;31888;44.512;26.104;2023-04-25T03:58:42;17.75;;;10.65;;
46158;SDS011;31888;44.512;26.104;2023-04-25T04:01:09;26.20;;;11.75;;
46158;SDS011;31888;44.512;26.104;2023-04-25T04:03:35;17.27;;;11.20;;
46158;SDS011;31888;44.512;26.104;2023-04-25T04:06:01;20.40;;;11.77;;
46158;SDS011;31888;44.512;26.104;2023-04-25T04:08:31;20.77;;;11.65;;
46158;SDS011;31888;44.512;26.104;2023-04-25T04:10:56;21.67;;;13.10;;
46158;SDS011;31888;44.512;26.104;2023-04-25T04:13:22;19.48;;;11.70;;
46158;SDS011;31888;44.512;26.104;2023-04-25T04:15:47;22.42;;;12.02;;
46158;SDS011;31888;44.512;26.104;2023-04-25T04:18:13;21.83;;;12.07;;
46158;SDS011;31888;44.512;26.104;2023-04-25T04:20:38;22.50;;;12.40;;
46158;SDS011;31888;44.512;26.104;2023-04-25T04:23:03;22.98;;;13.07;;
46158;SDS011;31888;44.512;26.104;2023-04-25T04:25:29;24.17;;;12.57;;
46158;SDS011;31888;44.512;26.104;2023-04-25T04:28:12;24.42;;;12.68;;
46158;SDS011;31888;44.512;26.104;2023-04-25T04:30:49;19.67;;;12.00;;
46158;SDS011;31888;44.512;26.104;2023-04-25T04:33:15;24.05;;;11.73;;
46158;SDS011;31888;44.512;26.104;2023-04-25T04:35:45;22.33;;;12.00;;
46158;SDS011;31888;44.512;26.104;2023-04-25T04:38:12;23.35;;;13.18;;
46158;SDS011;31888;44.512;26.104;2023-04-25T04:40:39;22.60;;;13.77;;
46158;SDS011;31888;44.512;26.104;2023-04-25T04:43:26;19.10;;;12.30;;
46158;SDS011;31888;44.512;26.104;2023-04-25T04:46:03;22.23;;;13.20;;
46158;SDS011;31888;44.512;26.104;2023-04-25T04:48:37;21.20;;;13.15;;
46158;SDS011;31888;44.512;26.104;2023-04-25T04:51:05;24.20;;;13.50;;
46158;SDS011;31888;44.512;26.104;2023-04-25T04:53:58;23.42;;;13.45;;
46158;SDS011;31888;44.512;26.104;2023-04-25T04:56:55;22.80;;;13.65;;
46158;SDS011;31888;44.512;26.104;2023-04-25T04:59:31;18.35;;;12.73;;
46158;SDS011;31888;44.512;26.104;2023-04-25T05:02:04;19.85;;;13.55;;
46158;SDS011;31888;44.512;26.104;2023-04-25T05:05:00;20.58;;;12.13;;
46158;SDS011;31888;44.512;26.104;2023-04-25T05:07:45;21.33;;;12.93;;
46158;SDS011;31888;44.512;26.104;2023-04-25T05:10:44;18.77;;;12.25;;
46158;SDS011;31888;44.512;26.104;2023-04-25T05:13:29;23.63;;;12.25;;
46158;SDS011;31888;44.512;26.104;2023-04-25T05:16:06;22.98;;;13.07;;
46158;SDS011;31888;44.512;26.104;2023-04-25T05:18:49;23.42;;;13.45;;
46158;SDS011;31888;44.512;26.104;2023-04-25T05:21:43;27.20;;;12.40;;
46158;SDS011;31888;44.512;26.104;2023-04-25T05:24:33;23.73;;;13.25;;
46158;SDS011;31888;44.512;26.104;2023-04-25T05:27:17;19.20;;;12.57;;
46158;SDS011;31888;44.512;26.104;2023-04-25T05:30:13;25.90;;;14.02;;
46158;SDS011;31888;44.512;26.104;2023-04-25T05:32:53;20.52;;;13.10;;
46158;SDS011;31888;44.512;26.104;2023-04-25T05:35:18;20.70;;;13.93;;
46158;SDS011;31888;44.512;26.104;2023-04-25T05:37:45;23.73;;;13.75;;
46158;SDS011;31888;44.512;26.104;2023-04-25T05:40:10;29.83;;;13.82;;
46158;SDS011;31888;44.512;26.104;2023-04-25T05:42:56;29.25;;;15.82;;
46158;SDS011;31888;44.512;26.104;2023-04-25T05:45:22;21.73;;;14.77;;
46158;SDS011;31888;44.512;26.104;2023-04-25T05:48:09;32.03;;;15.95;;
46158;SDS011;31888;44.512;26.104;2023-04-25T05:51:04;32.28;;;16.17;;
46158;SDS011;31888;44.512;26.104;2023-04-25T05:53:43;33.15;;;17.30;;
46158;SDS011;31888;44.512;26.104;2023-04-25T05:56:12;26.65;;;16.23;;
46158;SDS011;31888;44.512;26.104;2023-04-25T05:58:40;27.98;;;16.08;;
46158;SDS011;31888;44.512;26.104;2023-04-25T06:01:20;26.23;;;18.23;;
46158;SDS011;31888;44.512;26.104;2023-04-25T06:03:45;29.80;;;17.40;;
46158;SDS011;31888;44.512;26.104;2023-04-25T06:06:14;28.10;;;17.42;;
46158;SDS011;31888;44.512;26.104;2023-04-25T06:08:39;29.83;;;16.90;;
46158;SDS011;31888;44.512;26.104;2023-04-25T06:11:06;29.73;;;17.17;;
46158;SDS011;31888;44.512;26.104;2023-04-25T06:13:32;25.98;;;16.08;;
46158;SDS011;31888;44.512;26.104;2023-04-25T06:15:57;28.75;;;15.75;;
46158;SDS011;31888;44.512;26.104;2023-04-25T06:18:29;31.98;;;16.35;;
46158;SDS011;31888;44.512;26.104;2023-04-25T06:23:21;30.88;;;16.50;;
46158;SDS011;31888;44.512;26.104;2023-04-25T06:28:19;30.45;;;17.55;;
46158;SDS011;31888;44.512;26.104;2023-04-25T06:30:47;30.83;;;18.45;;
46158;SDS011;31888;44.512;26.104;2023-04-25T06:33:16;31.13;;;17.88;;
46158;SDS011;31888;44.512;26.104;2023-04-25T06:35:44;26.10;;;17.25;;
46158;SDS011;31888;44.512;26.104;2023-04-25T06:38:16;28.85;;;17.05;;
46158;SDS011;31888;44.512;26.104;2023-04-25T06:40:45;33.60;;;19.23;;
46158;SDS011;31888;44.512;26.104;2023-04-25T06:43:11;50.10;;;27.52;;
46158;SDS011;31888;44.512;26.104;2023-04-25T06:45:45;35.67;;;21.40;;
46158;SDS011;31888;44.512;26.104;2023-04-25T06:48:11;35.25;;;21.65;;
46158;SDS011;31888;44.512;26.104;2023-04-25T06:50:36;43.17;;;25.45;;
46158;SDS011;31888;44.512;26.104;2023-04-25T06:53:02;35.60;;;22.45;;
46158;SDS011;31888;44.512;26.104;2023-04-25T06:55:27;32.08;;;18.23;;
46158;SDS011;31888;44.512;26.104;2023-04-25T06:58:14;27.48;;;17.55;;
46158;SDS011;31888;44.512;26.104;2023-04-25T07:00:56;28.52;;;16.80;;
46158;SDS011;31888;44.512;26.104;2023-04-25T07:03:23;34.67;;;19.02;;
46158;SDS011;31888;44.512;26.104;2023-04-25T07:05:56;32.63;;;18.65;;
46158;SDS011;31888;44.512;26.104;2023-04-25T07:08:23;36.38;;;19.05;;
46158;SDS011;31888;44.512;26.104;2023-04-25T07:10:49;35.08;;;19.10;;
46158;SDS011;31888;44.512;26.104;2023-04-25T07:13:14;39.60;;;20.25;;
46158;SDS011;31888;44.512;26.104;2023-04-25T07:15:39;34.90;;;20.17;;
46158;SDS011;31888;44.512;26.104;2023-04-25T07:18:05;33.03;;;18.98;;
46158;SDS011;31888;44.512;26.104;2023-04-25T07:20:30;35.72;;;18.52;;
46158;SDS011;31888;44.512;26.104;2023-04-25T07:22:57;33.30;;;19.38;;
46158;SDS011;31888;44.512;26.104;2023-04-25T07:25:23;35.53;;;20.85;;
46158;SDS011;31888;44.512;26.104;2023-04-25T07:27:48;38.30;;;21.40;;
46158;SDS011;31888;44.512;26.104;2023-04-25T07:30:16;37.83;;;23.55;;
46158;SDS011;31888;44.512;26.104;2023-04-25T07:32:41;40.97;;;23.45;;
46158;SDS011;31888;44.512;26.104;2023-04-25T07:35:06;35.85;;;22.15;;
46158;SDS011;31888;44.512;26.104;2023-04-25T07:37:31;41.08;;;21.85;;
46158;SDS011;31888;44.512;26.104;2023-04-25T07:40:24;41.90;;;22.52;;
46158;SDS011;31888;44.512;26.104;2023-04-25T07:42:57;32.45;;;20.77;;
46158;SDS011;31888;44.512;26.104;2023-04-25T07:45:29;32.20;;;20.67;;
46158;SDS011;31888;44.512;26.104;2023-04-25T07:47:54;35.95;;;20.38;;
46158;SDS011;31888;44.512;26.104;2023-04-25T07:50:19;35.75;;;21.77;;
46158;SDS011;31888;44.512;26.104;2023-04-25T07:52:44;40.75;;;22.60;;
46158;SDS011;31888;44.512;26.104;2023-04-25T07:55:31;34.83;;;22.15;;
46158;SDS011;31888;44.512;26.104;2023-04-25T07:58:10;40.03;;;23.00;;
46158;SDS011;31888;44.512;26.104;2023-04-25T08:00:38;46.97;;;24.60;;
46158;SDS011;31888;44.512;26.104;2023-04-25T08:03:27;40.60;;;21.23;;
46158;SDS011;31888;44.512;26.104;2023-04-25T08:05:53;39.55;;;22.13;;
46158;SDS011;31888;44.512;26.104;2023-04-25T08:08:20;37.05;;;21.42;;
46158;SDS011;31888;44.512;26.104;2023-04-25T08:10:47;34.42;;;22.13;;
46158;SDS011;31888;44.512;26.104;2023-04-25T08:13:13;42.78;;;22.50;;
46158;SDS011;31888;44.512;26.104;2023-04-25T08:15:38;34.60;;;22.48;;
46158;SDS011;31888;44.512;26.104;2023-04-25T08:18:03;43.45;;;23.90;;
46158;SDS011;31888;44.512;26.104;2023-04-25T08:20:29;39.08;;;22.20;;
46158;SDS011;31888;44.512;26.104;2023-04-25T08:22:58;43.17;;;23.73;;
46158;SDS011;31888;44.512;26.104;2023-04-25T08:25:41;42.08;;;24.58;;
46158;SDS011;31888;44.512;26.104;2023-04-25T08:28:12;43.20;;;23.63;;
46158;SDS011;31888;44.512;26.104;2023-04-25T08:30:38;40.10;;;24.00;;
46158;SDS011;31888;44.512;26.104;2023-04-25T08:33:06;43.75;;;25.48;;
46158;SDS011;31888;44.512;26.104;2023-04-25T08:35:45;45.97;;;24.23;;
46158;SDS011;31888;44.512;26.104;2023-04-25T08:38:10;47.38;;;23.70;;
46158;SDS011;31888;44.512;26.104;2023-04-25T08:40:37;41.63;;;24.33;;
46158;SDS011;31888;44.512;26.104;2023-04-25T08:43:13;40.08;;;24.58;;
46158;SDS011;31888;44.512;26.104;2023-04-25T08:45:38;43.65;;;25.10;;
46158;SDS011;31888;44.512;26.104;2023-04-25T08:48:11;44.03;;;24.35;;
46158;SDS011;31888;44.512;26.104;2023-04-25T08:50:37;44.97;;;24.20;;
46158;SDS011;31888;44.512;26.104;2023-04-25T08:53:04;39.60;;;24.77;;
46158;SDS011;31888;44.512;26.104;2023-04-25T08:55:32;41.35;;;24.70;;
46158;SDS011;31888;44.512;26.104;2023-04-25T08:57:58;45.17;;;23.70;;
46158;SDS011;31888;44.512;26.104;2023-04-25T09:00:26;39.30;;;24.45;;
46158;SDS011;31888;44.512;26.104;2023-04-25T09:02:52;38.45;;;24.73;;
46158;SDS011;31888;44.512;26.104;2023-04-25T09:05:18;42.63;;;25.55;;
46158;SDS011;31888;44.512;26.104;2023-04-25T09:07:47;41.70;;;25.57;;
46158;SDS011;31888;44.512;26.104;2023-04-25T09:10:12;43.17;;;26.27;;
46158;SDS011;31888;44.512;26.104;2023-04-25T09:12:37;42.42;;;25.33;;
46158;SDS011;31888;44.512;26.104;2023-04-25T09:15:04;36.40;;;23.77;;
46158;SDS011;31888;44.512;26.104;2023-04-25T09:17:49;38.42;;;25.02;;
46158;SDS011;31888;44.512;26.104;2023-04-25T09:20:25;42.17;;;26.23;;
46158;SDS011;31888;44.512;26.104;2023-04-25T09:23:00;42.28;;;25.95;;
46158;SDS011;31888;44.512;26.104;2023-04-25T09:25:27;41.08;;;24.75;;
46158;SDS011;31888;44.512;26.104;2023-04-25T09:27:58;41.65;;;25.42;;
46158;SDS011;31888;44.512;26.104;2023-04-25T09:30:29;39.30;;;24.92;;
46158;SDS011;31888;44.512;26.104;2023-04-25T09:33:06;40.88;;;24.58;;
46158;SDS011;31888;44.512;26.104;2023-04-25T09:35:37;40.47;;;24.58;;
46158;SDS011;31888;44.512;26.104;2023-04-25T09:38:07;36.17;;;24.70;;
46158;SDS011;31888;44.512;26.104;2023-04-25T09:40:48;37.90;;;25.25;;
46158;SDS011;31888;44.512;26.104;2023-04-25T09:43:40;41.97;;;25.73;;
46158;SDS011;31888;44.512;26.104;2023-04-25T09:46:10;42.83;;;25.30;;
46158;SDS011;31888;44.512;26.104;2023-04-25T09:48:43;37.78;;;24.30;;
46158;SDS011;31888;44.512;26.104;2023-04-25T09:51:20;36.85;;;24.20;;
46158;SDS011;31888;44.512;26.104;2023-04-25T09:53:53;37.85;;;24.88;;
46158;SDS011;31888;44.512;26.104;2023-04-25T09:56:31;41.97;;;24.80;;
46158;SDS011;31888;44.512;26.104;2023-04-25T09:59:03;38.60;;;25.02;;
46158;SDS011;31888;44.512;26.104;2023-04-25T10:01:32;34.53;;;23.25;;
46158;SDS011;31888;44.512;26.104;2023-04-25T10:04:09;39.63;;;22.80;;
46158;SDS011;31888;44.512;26.104;2023-04-25T10:06:43;37.15;;;22.73;;
46158;SDS011;31888;44.512;26.104;2023-04-25T10:09:10;33.38;;;22.33;;
46158;SDS011;31888;44.512;26.104;2023-04-25T10:11:36;37.03;;;23.08;;
46158;SDS011;31888;44.512;26.104;2023-04-25T10:14:03;36.70;;;22.80;;
46158;SDS011;31888;44.512;26.104;2023-04-25T10:16:29;38.65;;;23.50;;
46158;SDS011;31888;44.512;26.104;2023-04-25T10:18:54;33.65;;;21.80;;
46158;SDS011;31888;44.512;26.104;2023-04-25T10:21:21;27.13;;;19.60;;
46158;SDS011;31888;44.512;26.104;2023-04-25T10:23:46;35.53;;;21.00;;
46158;SDS011;31888;44.512;26.104;2023-04-25T10:26:13;31.92;;;22.08;;
46158;SDS011;31888;44.512;26.104;2023-04-25T10:31:19;34.40;;;24.23;;
46158;SDS011;31888;44.512;26.104;2023-04-25T10:33:43;30.23;;;21.50;;
46158;SDS011;31888;44.512;26.104;2023-04-25T10:36:09;35.60;;;23.45;;
46158;SDS011;31888;44.512;26.104;2023-04-25T10:38:36;35.65;;;23.77;;
46158;SDS011;31888;44.512;26.104;2023-04-25T10:41:02;39.75;;;24.90;;
46158;SDS011;31888;44.512;26.104;2023-04-25T10:43:35;40.17;;;27.42;;
46158;SDS011;31888;44.512;26.104;2023-04-25T10:46:02;37.33;;;26.13;;
46158;SDS011;31888;44.512;26.104;2023-04-25T10:48:36;42.17;;;26.70;;
46158;SDS011;31888;44.512;26.104;2023-04-25T10:51:06;46.78;;;29.83;;
46158;SDS011;31888;44.512;26.104;2023-04-25T10:53:33;44.65;;;28.02;;
46158;SDS011;31888;44.512;26.104;2023-04-25T10:56:01;45.95;;;29.20;;
46158;SDS011;31888;44.512;26.104;2023-04-25T10:58:36;45.95;;;29.63;;
46158;SDS011;31888;44.512;26.104;2023-04-25T11:01:06;47.88;;;31.35;;
46158;SDS011;31888;44.512;26.104;2023-04-25T11:03:31;47.35;;;31.52;;
46158;SDS011;31888;44.512;26.104;2023-04-25T11:05:56;46.78;;;31.20;;
46158;SDS011;31888;44.512;26.104;2023-04-25T11:08:24;50.35;;;30.02;;
46158;SDS011;31888;44.512;26.104;2023-04-25T11:11:01;43.75;;;30.02;;
46158;SDS011;31888;44.512;26.104;2023-04-25T11:13:28;48.08;;;30.45;;
46158;SDS011;31888;44.512;26.104;2023-04-25T11:15:54;44.47;;;29.35;;
46158;SDS011;31888;44.512;26.104;2023-04-25T11:18:40;44.55;;;27.13;;
46158;SDS011;31888;44.512;26.104;2023-04-25T11:21:05;37.70;;;25.17;;
46158;SDS011;31888;44.512;26.104;2023-04-25T11:23:30;34.72;;;23.38;;
46158;SDS011;31888;44.512;26.104;2023-04-25T11:25:56;32.42;;;22.42;;
46158;SDS011;31888;44.512;26.104;2023-04-25T11:28:25;27.70;;;21.00;;
46158;SDS011;31888;44.512;26.104;2023-04-25T11:30:51;28.80;;;20.98;;
46158;SDS011;31888;44.512;26.104;2023-04-25T11:33:15;27.92;;;20.65;;
46158;SDS011;31888;44.512;26.104;2023-04-25T11:35:40;28.27;;;19.60;;
46158;SDS011;31888;44.512;26.104;2023-04-25T11:38:05;28.60;;;19.52;;
46158;SDS011;31888;44.512;26.104;2023-04-25T11:40:31;23.45;;;17.35;;
46158;SDS011;31888;44.512;26.104;2023-04-25T11:42:56;24.17;;;18.02;;
46158;SDS011;31888;44.512;26.104;2023-04-25T11:45:26;22.90;;;16.42;;
46158;SDS011;31888;44.512;26.104;2023-04-25T11:47:53;22.52;;;16.25;;
46158;SDS011;31888;44.512;26.104;2023-04-25T11:50:18;22.50;;;15.23;;
46158;SDS011;31888;44.512;26.104;2023-04-25T11:52:44;21.00;;;15.13;;
46158;SDS011;31888;44.512;26.104;2023-04-25T11:55:12;19.88;;;14.68;;
46158;SDS011;31888;44.512;26.104;2023-04-25T11:57:38;20.33;;;13.98;;
46158;SDS011;31888;44.512;26.104;2023-04-25T12:00:09;18.65;;;13.65;;
46158;SDS011;31888;44.512;26.104;2023-04-25T12:02:42;18.50;;;13.80;;
46158;SDS011;31888;44.512;26.104;2023-04-25T12:05:08;16.80;;;12.88;;
46158;SDS011;31888;44.512;26.104;2023-04-25T12:07:54;21.30;;;15.50;;
46158;SDS011;31888;44.512;26.104;2023-04-25T12:10:19;23.10;;;17.02;;
46158;SDS011;31888;44.512;26.104;2023-04-25T12:12:45;22.52;;;16.90;;
46158;SDS011;31888;44.512;26.104;2023-04-25T12:15:11;24.63;;;16.25;;
46158;SDS011;31888;44.512;26.104;2023-04-25T12:17:39;26.33;;;17.10;;
46158;SDS011;31888;44.512;26.104;2023-04-25T12:20:09;29.35;;;18.13;;
46158;SDS011;31888;44.512;26.104;2023-04-25T12:22:36;25.00;;;17.88;;
46158;SDS011;31888;44.512;26.104;2023-04-25T12:25:01;28.77;;;19.75;;
46158;SDS011;31888;44.512;26.104;2023-04-25T12:27:26;29.95;;;18.95;;
46158;SDS011;31888;44.512;26.104;2023-04-25T12:29:52;31.95;;;20.65;;
46158;SDS011;31888;44.512;26.104;2023-04-25T12:32:18;30.90;;;22.42;;
46158;SDS011;31888;44.512;26.104;2023-04-25T12:34:44;32.25;;;22.17;;
46158;SDS011;31888;44.512;26.104;2023-04-25T12:37:09;25.92;;;18.10;;
46158;SDS011;31888;44.512;26.104;2023-04-25T12:39:34;24.27;;;16.50;;
46158;SDS011;31888;44.512;26.104;2023-04-25T12:41:59;29.42;;;16.27;;
46158;SDS011;31888;44.512;26.104;2023-04-25T12:44:23;29.67;;;17.05;;
46158;SDS011;31888;44.512;26.104;2023-04-25T12:46:48;21.45;;;14.20;;
46158;SDS011;31888;44.512;26.104;2023-04-25T12:49:13;13.38;;;9.48;;
46158;SDS011;31888;44.512;26.104;2023-04-25T12:51:42;13.38;;;10.35;;
46158;SDS011;31888;44.512;26.104;2023-04-25T12:54:07;19.88;;;12.13;;
46158;SDS011;31888;44.512;26.104;2023-04-25T12:56:32;19.13;;;12.05;;
46158;SDS011;31888;44.512;26.104;2023-04-25T12:58:57;15.43;;;11.65;;
46158;SDS011;31888;44.512;26.104;2023-04-25T13:01:22;16.63;;;11.10;;
46158;SDS011;31888;44.512;26.104;2023-04-25T13:03:48;20.20;;;13.38;;
46158;SDS011;31888;44.512;26.104;2023-04-25T13:06:14;17.85;;;12.75;;
46158;SDS011;31888;44.512;26.104;2023-04-25T13:08:41;21.15;;;13.05;;
46158;SDS011;31888;44.512;26.104;2023-04-25T13:11:05;9.93;;;6.10;;
46158;SDS011;31888;44.512;26.104;2023-04-25T13:13:30;11.85;;;6.40;;
46158;SDS011;31888;44.512;26.104;2023-04-25T13:15:58;14.43;;;6.03;;
46158;SDS011;31888;44.512;26.104;2023-04-25T13:18:23;11.57;;;6.47;;
46158;SDS011;31888;44.512;26.104;2023-04-25T13:20:49;8.98;;;5.80;;
46158;SDS011;31888;44.512;26.104;2023-04-25T13:23:13;10.40;;;6.10;;
46158;SDS011;31888;44.512;26.104;2023-04-25T13:25:39;9.07;;;5.82;;
46158;SDS011;31888;44.512;26.104;2023-04-25T13:28:04;8.80;;;5.88;;
46158;SDS011;31888;44.512;26.104;2023-04-25T13:30:29;11.63;;;5.85;;
46158;SDS011;31888;44.512;26.104;2023-04-25T13:32:54;10.38;;;5.95;;
46158;SDS011;31888;44.512;26.104;2023-04-25T13:35:23;12.88;;;6.43;;
46158;SDS011;31888;44.512;26.104;2023-04-25T13:37:48;15.27;;;7.07;;
46158;SDS011;31888;44.512;26.104;2023-04-25T13:40:13;14.80;;;6.70;;
46158;SDS011;31888;44.512;26.104;2023-04-25T13:42:40;15.70;;;6.47;;
46158;SDS011;31888;44.512;26.104;2023-04-25T13:45:07;10.57;;;6.40;;
46158;SDS011;31888;44.512;26.104;2023-04-25T13:47:34;10.50;;;7.68;;
46158;SDS011;31888;44.512;26.104;2023-04-25T13:49:59;17.67;;;10.18;;
46158;SDS011;31888;44.512;26.104;2023-04-25T13:52:27;15.73;;;10.07;;
46158;SDS011;31888;44.512;26.104;2023-04-25T13:54:52;16.73;;;9.82;;
46158;SDS011;31888;44.512;26.104;2023-04-25T13:57:19;12.85;;;9.73;;
46158;SDS011;31888;44.512;26.104;2023-04-25T13:59:46;15.88;;;10.13;;
46158;SDS011;31888;44.512;26.104;2023-04-25T14:02:10;18.92;;;9.48;;
46158;SDS011;31888;44.512;26.104;2023-04-25T14:04:35;13.73;;;9.80;;
46158;SDS011;31888;44.512;26.104;2023-04-25T14:07:00;15.23;;;9.15;;
46158;SDS011;31888;44.512;26.104;2023-04-25T14:09:26;14.45;;;9.48;;
46158;SDS011;31888;44.512;26.104;2023-04-25T14:11:50;12.57;;;7.60;;
46158;SDS011;31888;44.512;26.104;2023-04-25T14:14:15;13.07;;;8.07;;
46158;SDS011;31888;44.512;26.104;2023-04-25T14:16:41;8.77;;;6.20;;
46158;SDS011;31888;44.512;26.104;2023-04-25T14:19:07;11.57;;;6.82;;
46158;SDS011;31888;44.512;26.104;2023-04-25T14:21:35;10.90;;;6.28;;
46158;SDS011;31888;44.512;26.104;2023-04-25T14:24:00;10.23;;;6.75;;
46158;SDS011;31888;44.512;26.104;2023-04-25T14:26:25;9.88;;;6.80;;
46158;SDS011;31888;44.512;26.104;2023-04-25T14:28:50;12.85;;;7.82;;